LNI746 WADD-WAAA
Flight info
| Callsign | LNI746 |
|---|---|
| Flight time | 0h 47m |
| Altitude | 35000 |
| Route | PEDET W41 LIPOT |
| Aircraft | B739/M-SDE2E3FGHIRWXY/LB1 |
Departure
| Time | 2026-04-22 13:28 |
|---|---|
| Airport | Denpasar I Gusti Ngurah Rai International Airport (WADD) |
Arrival
| Time | 2026-04-22 14:16 |
|---|---|
| Airport | Sultan Hasanuddin International Airport (WAAA) |
| Time | Latitude | Longitude | Altitude | Speed | Heading |
|---|---|---|---|---|---|
| 2026-04-22 13:07 | -8.74536 | 115.16124 | 32 ft | 0 kts | 88° |
| 2026-04-22 13:14 | -8.74537 | 115.16113 | 13 ft | 3 kts | 88° |
| 2026-04-22 13:14 | -8.74537 | 115.16092 | 44 ft | 3 kts | 88° |
| 2026-04-22 13:14 | -8.74537 | 115.16079 | 33 ft | 1 kts | 113° |
| 2026-04-22 13:15 | -8.74532 | 115.16071 | 33 ft | 1 kts | 154° |
| 2026-04-22 13:15 | -8.74524 | 115.16068 | 30 ft | 1 kts | 170° |
| 2026-04-22 13:15 | -8.74516 | 115.16067 | 29 ft | 1 kts | 176° |
| 2026-04-22 13:15 | -8.74507 | 115.16066 | 32 ft | 1 kts | 179° |
| 2026-04-22 13:18 | -8.74508 | 115.16066 | 31 ft | 1 kts | 179° |
| 2026-04-22 13:18 | -8.74531 | 115.16067 | 32 ft | 5 kts | 178° |
| 2026-04-22 13:18 | -8.74574 | 115.16068 | 31 ft | 8 kts | 178° |
| 2026-04-22 13:18 | -8.74633 | 115.16070 | 32 ft | 9 kts | 179° |
| 2026-04-22 13:19 | -8.74689 | 115.16057 | 32 ft | 8 kts | 211° |
| 2026-04-22 13:19 | -8.74708 | 115.16006 | 32 ft | 8 kts | 266° |
| 2026-04-22 13:19 | -8.74711 | 115.15937 | 32 ft | 12 kts | 268° |
| 2026-04-22 13:19 | -8.74715 | 115.15850 | 32 ft | 12 kts | 268° |
| 2026-04-22 13:20 | -8.74718 | 115.15765 | 32 ft | 12 kts | 268° |
| 2026-04-22 13:20 | -8.74722 | 115.15681 | 32 ft | 12 kts | 268° |
| 2026-04-22 13:20 | -8.74725 | 115.15600 | 31 ft | 11 kts | 268° |
| 2026-04-22 13:20 | -8.74728 | 115.15520 | 31 ft | 11 kts | 268° |
| 2026-04-22 13:21 | -8.74732 | 115.15449 | 31 ft | 8 kts | 264° |
| 2026-04-22 13:21 | -8.74752 | 115.15403 | 30 ft | 6 kts | 227° |
| 2026-04-22 13:21 | -8.74783 | 115.15392 | 30 ft | 3 kts | 183° |
| 2026-04-22 13:21 | -8.74793 | 115.15392 | 30 ft | 0 kts | 179° |
| 2026-04-22 13:25 | -8.74804 | 115.15392 | 30 ft | 4 kts | 179° |
| 2026-04-22 13:25 | -8.74852 | 115.15393 | 28 ft | 9 kts | 178° |
| 2026-04-22 13:26 | -8.74890 | 115.15398 | 28 ft | 5 kts | 148° |
| 2026-04-22 13:26 | -8.74897 | 115.15424 | 28 ft | 0 kts | 86° |
| 2026-04-22 13:27 | -8.74896 | 115.15440 | 28 ft | 8 kts | 86° |
| 2026-04-22 13:28 | -8.74886 | 115.15695 | 27 ft | 73 kts | 87° |
| 2026-04-22 13:28 | -8.74855 | 115.16442 | 28 ft | 137 kts | 87° |
| 2026-04-22 13:28 | -8.74808 | 115.17577 | 107 ft | 179 kts | 87° |
| 2026-04-22 13:28 | -8.74771 | 115.18812 | 906 ft | 171 kts | 89° |
| 2026-04-22 13:29 | -8.74733 | 115.20025 | 1561 ft | 179 kts | 88° |
| 2026-04-22 13:29 | -8.74675 | 115.21389 | 1815 ft | 208 kts | 87° |
| 2026-04-22 13:29 | -8.74607 | 115.22947 | 2071 ft | 233 kts | 87° |
| 2026-04-22 13:29 | -8.74532 | 115.24675 | 2352 ft | 256 kts | 87° |
| 2026-04-22 13:30 | -8.74453 | 115.26504 | 3044 ft | 263 kts | 86° |
| 2026-04-22 13:30 | -8.74377 | 115.28330 | 3941 ft | 263 kts | 86° |
| 2026-04-22 13:30 | -8.74299 | 115.30183 | 4785 ft | 266 kts | 86° |
| 2026-04-22 13:30 | -8.74220 | 115.32067 | 5598 ft | 269 kts | 87° |
| 2026-04-22 13:31 | -8.74140 | 115.33970 | 6372 ft | 273 kts | 87° |
| 2026-04-22 13:31 | -8.74059 | 115.35896 | 7111 ft | 276 kts | 87° |
| 2026-04-22 13:31 | -8.73978 | 115.37846 | 7859 ft | 279 kts | 87° |
| 2026-04-22 13:31 | -8.73896 | 115.39814 | 8612 ft | 282 kts | 87° |
| 2026-04-22 13:32 | -8.73813 | 115.41804 | 9355 ft | 285 kts | 86° |
| 2026-04-22 13:32 | -8.73729 | 115.43818 | 10072 ft | 289 kts | 86° |
| 2026-04-22 13:32 | -8.73642 | 115.45902 | 10433 ft | 307 kts | 86° |
| 2026-04-22 13:32 | -8.73548 | 115.48132 | 10598 ft | 329 kts | 86° |
| 2026-04-22 13:33 | -8.73112 | 115.50436 | 10935 ft | 340 kts | 69° |
| 2026-04-22 13:33 | -8.71940 | 115.52523 | 11496 ft | 344 kts | 50° |
| 2026-04-22 13:33 | -8.70307 | 115.54260 | 12157 ft | 346 kts | 45° |
| 2026-04-22 13:33 | -8.68631 | 115.55916 | 12769 ft | 349 kts | 44° |
| 2026-04-22 13:34 | -8.63914 | 115.60542 | 14333 ft | 358 kts | 45° |
| 2026-04-22 13:34 | -8.61959 | 115.62489 | 14915 ft | 361 kts | 45° |
| 2026-04-22 13:34 | -8.60167 | 115.64286 | 15443 ft | 364 kts | 45° |
| 2026-04-22 13:34 | -8.58359 | 115.66100 | 15964 ft | 367 kts | 45° |
| 2026-04-22 13:35 | -8.56538 | 115.67927 | 16480 ft | 370 kts | 45° |
| 2026-04-22 13:35 | -8.54699 | 115.69770 | 16983 ft | 373 kts | 44° |
| 2026-04-22 13:35 | -8.52801 | 115.71582 | 17502 ft | 376 kts | 43° |
| 2026-04-22 13:35 | -8.50858 | 115.73359 | 17987 ft | 379 kts | 42° |
| 2026-04-22 13:36 | -8.48884 | 115.75140 | 18419 ft | 382 kts | 42° |
| 2026-04-22 13:36 | -8.46918 | 115.76913 | 18830 ft | 385 kts | 42° |
| 2026-04-22 13:36 | -8.44921 | 115.78719 | 19238 ft | 387 kts | 42° |
| 2026-04-22 13:36 | -8.42909 | 115.80545 | 19641 ft | 390 kts | 42° |
| 2026-04-22 13:37 | -8.40890 | 115.82382 | 20052 ft | 392 kts | 42° |
| 2026-04-22 13:37 | -8.38877 | 115.84217 | 20437 ft | 395 kts | 42° |
| 2026-04-22 13:37 | -8.36835 | 115.86082 | 20818 ft | 397 kts | 42° |
| 2026-04-22 13:37 | -8.34776 | 115.87963 | 21203 ft | 399 kts | 42° |
| 2026-04-22 13:38 | -8.32712 | 115.89848 | 21594 ft | 401 kts | 42° |
| 2026-04-22 13:38 | -8.25408 | 115.96519 | 22850 ft | 410 kts | 42° |
| 2026-04-22 13:38 | -8.16861 | 116.04321 | 24071 ft | 418 kts | 42° |
| 2026-04-22 13:39 | -8.08174 | 116.12245 | 25182 ft | 424 kts | 42° |
| 2026-04-22 13:39 | -7.99329 | 116.20310 | 26212 ft | 431 kts | 42° |
| 2026-04-22 13:39 | -7.90371 | 116.28471 | 27200 ft | 437 kts | 42° |
| 2026-04-22 13:39 | -7.81293 | 116.36738 | 28120 ft | 444 kts | 42° |
| 2026-04-22 13:40 | -7.78168 | 116.39582 | 28427 ft | 446 kts | 42° |
| 2026-04-22 13:40 | -7.71056 | 116.46054 | 29074 ft | 451 kts | 42° |
| 2026-04-22 13:40 | -7.61694 | 116.54569 | 29923 ft | 456 kts | 42° |
| 2026-04-22 13:40 | -7.52373 | 116.63041 | 30741 ft | 457 kts | 42° |
| 2026-04-22 13:41 | -7.50088 | 116.65263 | 30999 ft | 456 kts | 48° |
| 2026-04-22 13:41 | -7.47172 | 116.68656 | 31355 ft | 455 kts | 50° |
| 2026-04-22 13:41 | -7.39097 | 116.78485 | 32378 ft | 454 kts | 50° |
| 2026-04-22 13:41 | -7.31018 | 116.88176 | 33447 ft | 454 kts | 50° |
| 2026-04-22 13:42 | -7.28978 | 116.90602 | 33738 ft | 454 kts | 50° |
| 2026-04-22 13:42 | -7.26937 | 116.93028 | 34033 ft | 453 kts | 50° |
| 2026-04-22 13:42 | -7.24902 | 116.95447 | 34299 ft | 452 kts | 50° |
| 2026-04-22 13:42 | -7.22870 | 116.97865 | 34538 ft | 452 kts | 50° |
| 2026-04-22 13:43 | -7.20843 | 117.00278 | 34774 ft | 451 kts | 50° |
| 2026-04-22 13:43 | -7.18824 | 117.02683 | 34925 ft | 450 kts | 50° |
| 2026-04-22 13:43 | -7.10026 | 117.13161 | 34934 ft | 452 kts | 50° |
| 2026-04-22 13:44 | -6.94326 | 117.31840 | 34924 ft | 454 kts | 50° |
| 2026-04-22 13:44 | -6.82485 | 117.45912 | 34922 ft | 455 kts | 50° |
| 2026-04-22 13:45 | -6.76450 | 117.53082 | 34916 ft | 455 kts | 50° |
| 2026-04-22 13:45 | -6.72455 | 117.57828 | 34917 ft | 455 kts | 50° |
| 2026-04-22 13:46 | -6.68362 | 117.62685 | 34917 ft | 454 kts | 50° |
| 2026-04-22 13:46 | -6.64770 | 117.66388 | 34912 ft | 454 kts | 43° |
| 2026-04-22 13:47 | -6.60848 | 117.69922 | 34920 ft | 454 kts | 41° |
| 2026-04-22 13:47 | -6.56327 | 117.73950 | 34917 ft | 454 kts | 42° |
| 2026-04-22 13:48 | -6.51642 | 117.78211 | 34922 ft | 454 kts | 43° |
| 2026-04-22 13:48 | -6.46967 | 117.82522 | 34932 ft | 458 kts | 43° |
| 2026-04-22 13:49 | -6.42277 | 117.86859 | 34921 ft | 462 kts | 43° |
| 2026-04-22 13:49 | -6.37545 | 117.91233 | 34906 ft | 456 kts | 43° |
| 2026-04-22 13:50 | -6.32931 | 117.95495 | 34907 ft | 450 kts | 43° |
| 2026-04-22 13:50 | -6.28367 | 117.99708 | 34912 ft | 442 kts | 43° |
| 2026-04-22 13:51 | -6.23845 | 118.03882 | 34818 ft | 442 kts | 43° |
| 2026-04-22 13:51 | -6.21567 | 118.05984 | 34402 ft | 444 kts | 43° |
| 2026-04-22 13:51 | -6.19301 | 118.08075 | 33939 ft | 441 kts | 43° |
| 2026-04-22 13:52 | -6.17046 | 118.10155 | 33417 ft | 438 kts | 43° |
| 2026-04-22 13:52 | -6.14814 | 118.12214 | 32907 ft | 434 kts | 43° |
| 2026-04-22 13:52 | -6.12599 | 118.14257 | 32415 ft | 430 kts | 43° |
| 2026-04-22 13:52 | -6.10405 | 118.16280 | 31922 ft | 426 kts | 43° |
| 2026-04-22 13:53 | -6.08228 | 118.18287 | 31456 ft | 422 kts | 43° |
| 2026-04-22 13:53 | -6.06074 | 118.20274 | 30989 ft | 419 kts | 43° |
| 2026-04-22 13:53 | -6.04029 | 118.22158 | 30545 ft | 415 kts | 43° |
| 2026-04-22 13:53 | -6.01908 | 118.24115 | 30083 ft | 412 kts | 43° |
| 2026-04-22 13:54 | -5.99803 | 118.26054 | 29537 ft | 409 kts | 43° |
| 2026-04-22 13:54 | -5.97746 | 118.27951 | 29046 ft | 405 kts | 43° |
| 2026-04-22 13:54 | -5.95677 | 118.29857 | 28558 ft | 400 kts | 43° |
| 2026-04-22 13:54 | -5.93635 | 118.31739 | 28088 ft | 396 kts | 43° |
| 2026-04-22 13:55 | -5.91618 | 118.33598 | 27633 ft | 392 kts | 43° |
| 2026-04-22 13:55 | -5.89612 | 118.35446 | 27177 ft | 389 kts | 43° |
| 2026-04-22 13:55 | -5.87625 | 118.37277 | 26728 ft | 386 kts | 43° |
| 2026-04-22 13:55 | -5.85655 | 118.39092 | 26289 ft | 382 kts | 43° |
| 2026-04-22 13:56 | -5.83721 | 118.40875 | 25850 ft | 380 kts | 43° |
| 2026-04-22 13:56 | -5.81776 | 118.42665 | 25397 ft | 378 kts | 43° |
| 2026-04-22 13:56 | -5.79842 | 118.44446 | 24956 ft | 376 kts | 43° |
| 2026-04-22 13:56 | -5.77924 | 118.46218 | 24499 ft | 375 kts | 43° |
| 2026-04-22 13:57 | -5.76016 | 118.47989 | 24097 ft | 372 kts | 43° |
| 2026-04-22 13:57 | -5.74144 | 118.49723 | 23976 ft | 360 kts | 43° |
| 2026-04-22 13:57 | -5.72333 | 118.51397 | 23915 ft | 347 kts | 43° |
| 2026-04-22 13:57 | -5.70594 | 118.53003 | 23906 ft | 332 kts | 43° |
| 2026-04-22 13:58 | -5.68929 | 118.54539 | 23896 ft | 318 kts | 43° |
| 2026-04-22 13:58 | -5.67338 | 118.56008 | 23895 ft | 303 kts | 43° |
| 2026-04-22 13:58 | -5.65813 | 118.57415 | 23900 ft | 294 kts | 43° |
| 2026-04-22 13:58 | -5.64313 | 118.58799 | 23910 ft | 293 kts | 43° |
| 2026-04-22 13:59 | -5.62799 | 118.60197 | 23926 ft | 298 kts | 43° |
| 2026-04-22 13:59 | -5.61260 | 118.61618 | 23931 ft | 302 kts | 43° |
| 2026-04-22 13:59 | -5.59699 | 118.63057 | 23885 ft | 298 kts | 43° |
| 2026-04-22 13:59 | -5.58191 | 118.64445 | 23498 ft | 298 kts | 43° |
| 2026-04-22 14:00 | -5.56746 | 118.65777 | 22508 ft | 313 kts | 43° |
| 2026-04-22 14:00 | -5.55077 | 118.67317 | 21190 ft | 337 kts | 43° |
| 2026-04-22 14:00 | -5.53306 | 118.68952 | 20193 ft | 351 kts | 43° |
| 2026-04-22 14:00 | -5.51508 | 118.70612 | 19518 ft | 352 kts | 43° |
| 2026-04-22 14:01 | -5.49702 | 118.72277 | 18901 ft | 351 kts | 43° |
| 2026-04-22 14:01 | -5.47916 | 118.73926 | 18356 ft | 348 kts | 43° |
| 2026-04-22 14:01 | -5.46142 | 118.75562 | 17773 ft | 344 kts | 43° |
| 2026-04-22 14:01 | -5.44385 | 118.77184 | 17170 ft | 341 kts | 43° |
| 2026-04-22 14:02 | -5.42645 | 118.78789 | 16583 ft | 338 kts | 43° |
| 2026-04-22 14:02 | -5.40919 | 118.80381 | 16009 ft | 335 kts | 43° |
| 2026-04-22 14:02 | -5.39209 | 118.81960 | 15453 ft | 333 kts | 43° |
| 2026-04-22 14:02 | -5.37512 | 118.83525 | 14897 ft | 330 kts | 43° |
| 2026-04-22 14:03 | -5.35828 | 118.85079 | 14362 ft | 327 kts | 43° |
| 2026-04-22 14:03 | -5.34181 | 118.86598 | 13832 ft | 325 kts | 43° |
| 2026-04-22 14:03 | -5.32532 | 118.88118 | 13512 ft | 315 kts | 43° |
| 2026-04-22 14:03 | -5.30937 | 118.89607 | 13173 ft | 305 kts | 48° |
| 2026-04-22 14:04 | -5.29854 | 118.91347 | 12947 ft | 293 kts | 70° |
| 2026-04-22 14:04 | -5.29450 | 118.93321 | 12923 ft | 288 kts | 87° |
| 2026-04-22 14:04 | -5.29408 | 118.95303 | 12918 ft | 280 kts | 89° |
| 2026-04-22 14:04 | -5.29412 | 118.97204 | 12894 ft | 265 kts | 90° |
| 2026-04-22 14:05 | -5.29422 | 118.98990 | 12888 ft | 248 kts | 90° |
| 2026-04-22 14:05 | -5.29430 | 119.00684 | 12884 ft | 240 kts | 90° |
| 2026-04-22 14:05 | -5.29435 | 119.04022 | 12196 ft | 239 kts | 90° |
| 2026-04-22 14:06 | -5.29437 | 119.05696 | 11629 ft | 245 kts | 90° |
| 2026-04-22 14:06 | -5.29435 | 119.07505 | 10600 ft | 272 kts | 90° |
| 2026-04-22 14:06 | -5.29432 | 119.09468 | 9891 ft | 284 kts | 90° |
| 2026-04-22 14:06 | -5.29427 | 119.11435 | 9506 ft | 287 kts | 90° |
| 2026-04-22 14:07 | -5.29424 | 119.13462 | 9163 ft | 290 kts | 90° |
| 2026-04-22 14:07 | -5.29418 | 119.15490 | 8816 ft | 292 kts | 90° |
| 2026-04-22 14:07 | -5.29412 | 119.17523 | 8460 ft | 290 kts | 90° |
| 2026-04-22 14:07 | -5.29404 | 119.19536 | 8115 ft | 286 kts | 90° |
| 2026-04-22 14:08 | -5.29396 | 119.21492 | 7877 ft | 273 kts | 90° |
| 2026-04-22 14:08 | -5.29388 | 119.23383 | 7360 ft | 273 kts | 90° |
| 2026-04-22 14:08 | -5.29382 | 119.24655 | 6933 ft | 277 kts | 90° |
| 2026-04-22 14:08 | -5.29374 | 119.26588 | 6430 ft | 277 kts | 90° |
| 2026-04-22 14:09 | -5.29364 | 119.28511 | 5948 ft | 275 kts | 90° |
| 2026-04-22 14:09 | -5.29350 | 119.30426 | 5484 ft | 273 kts | 90° |
| 2026-04-22 14:09 | -5.29339 | 119.32329 | 5056 ft | 271 kts | 90° |
| 2026-04-22 14:09 | -5.29331 | 119.34212 | 4641 ft | 269 kts | 90° |
| 2026-04-22 14:10 | -5.29326 | 119.36078 | 4430 ft | 263 kts | 90° |
| 2026-04-22 14:10 | -5.29317 | 119.37885 | 4271 ft | 253 kts | 90° |
| 2026-04-22 14:10 | -5.29308 | 119.39593 | 4147 ft | 240 kts | 90° |
| 2026-04-22 14:10 | -5.29272 | 119.41247 | 4024 ft | 236 kts | 82° |
| 2026-04-22 14:11 | -5.28574 | 119.42683 | 3983 ft | 231 kts | 45° |
| 2026-04-22 14:11 | -5.27339 | 119.43686 | 3904 ft | 221 kts | 38° |
| 2026-04-22 14:11 | -5.26096 | 119.44569 | 3671 ft | 216 kts | 33° |
| 2026-04-22 14:11 | -5.24833 | 119.45346 | 3409 ft | 211 kts | 31° |
| 2026-04-22 14:12 | -5.23584 | 119.46074 | 3148 ft | 206 kts | 31° |
| 2026-04-22 14:12 | -5.22354 | 119.46786 | 2901 ft | 199 kts | 31° |
| 2026-04-22 14:12 | -5.21176 | 119.47469 | 2651 ft | 193 kts | 31° |
| 2026-04-22 14:12 | -5.20056 | 119.48118 | 2399 ft | 184 kts | 31° |
| 2026-04-22 14:13 | -5.18978 | 119.48744 | 2190 ft | 168 kts | 31° |
| 2026-04-22 14:13 | -5.18009 | 119.49306 | 1953 ft | 155 kts | 30° |
| 2026-04-22 14:13 | -5.17091 | 119.49839 | 1773 ft | 153 kts | 30° |
| 2026-04-22 14:13 | -5.16181 | 119.50368 | 1583 ft | 153 kts | 30° |
| 2026-04-22 14:14 | -5.15257 | 119.50904 | 1383 ft | 152 kts | 31° |
| 2026-04-22 14:14 | -5.14348 | 119.51431 | 1198 ft | 150 kts | 31° |
| 2026-04-22 14:14 | -5.13451 | 119.51952 | 1015 ft | 148 kts | 31° |
| 2026-04-22 14:14 | -5.12542 | 119.52480 | 838 ft | 153 kts | 32° |
| 2026-04-22 14:15 | -5.11645 | 119.53003 | 640 ft | 153 kts | 31° |
| 2026-04-22 14:15 | -5.10736 | 119.53531 | 423 ft | 149 kts | 33° |
| 2026-04-22 14:15 | -5.09849 | 119.54044 | 218 ft | 146 kts | 30° |
| 2026-04-22 14:15 | -5.08970 | 119.54552 | 50 ft | 144 kts | 31° |
| 2026-04-22 14:16 | -5.08204 | 119.54995 | 39 ft | 99 kts | 29° |
| 2026-04-22 14:16 | -5.07784 | 119.55238 | 41 ft | 55 kts | 30° |
| 2026-04-22 14:16 | -5.07535 | 119.55378 | 41 ft | 30 kts | 24° |
| 2026-04-22 14:16 | -5.07341 | 119.55428 | 39 ft | 27 kts | 3° |
| 2026-04-22 14:17 | -5.07233 | 119.55428 | 39 ft | 8 kts | 351° |
| 2026-04-22 14:17 | -5.07193 | 119.55395 | 40 ft | 7 kts | 292° |
| 2026-04-22 14:17 | -5.07201 | 119.55367 | 40 ft | 3 kts | 217° |
| 2026-04-22 14:17 | -5.07223 | 119.55354 | 40 ft | 5 kts | 209° |
| 2026-04-22 14:18 | -5.07265 | 119.55331 | 40 ft | 11 kts | 209° |
| 2026-04-22 14:18 | -5.07338 | 119.55291 | 40 ft | 12 kts | 209° |
| 2026-04-22 14:18 | -5.07411 | 119.55248 | 40 ft | 12 kts | 211° |
| 2026-04-22 14:18 | -5.07483 | 119.55207 | 40 ft | 12 kts | 209° |
| 2026-04-22 14:19 | -5.07552 | 119.55167 | 40 ft | 11 kts | 210° |
| 2026-04-22 14:19 | -5.07614 | 119.55125 | 40 ft | 10 kts | 232° |
| 2026-04-22 14:19 | -5.07607 | 119.55060 | 40 ft | 10 kts | 299° |
| 2026-04-22 14:19 | -5.07582 | 119.54999 | 40 ft | 10 kts | 270° |
| 2026-04-22 14:20 | -5.07679 | 119.54919 | 40 ft | 9 kts | 210° |
| 2026-04-22 14:20 | -5.07733 | 119.54887 | 40 ft | 9 kts | 210° |
| 2026-04-22 14:20 | -5.07785 | 119.54857 | 40 ft | 9 kts | 210° |
| 2026-04-22 14:21 | -5.07880 | 119.54801 | 40 ft | 8 kts | 210° |
| 2026-04-22 14:21 | -5.07918 | 119.54779 | 40 ft | 5 kts | 210° |
| 2026-04-22 14:22 | -5.07953 | 119.54786 | 38 ft | 3 kts | 128° |
| 2026-04-22 14:22 | -5.07964 | 119.54803 | 40 ft | 3 kts | 121° |
| 2026-04-22 14:22 | -5.07978 | 119.54826 | 39 ft | 0 kts | 120° |